Time;durP1;ratioP1;P1;durP2;ratioP2;P2;SDS_P1;SDS_P2;PMS_P1;PMS_P2;Temp;Humidity;BMP_temperature;BMP_pressure;BME280_temperature;BME280_humidity;BME280_pressure;Samples;Min_cycle;Max_cycle;Signal;HPM_P1;HPM_P2
2021/05/05 00:00:33;;;;;;;2.90;1.20;;;10.70;99.90;;;;;;5052211;28;20435;-50
2021/05/05 00:02:59;;;;;;;4.17;1.53;;;10.60;99.90;;;;;;5052091;28;20466;-50
2021/05/05 00:05:25;;;;;;;4.43;1.70;;;10.60;99.90;;;;;;5052141;28;20483;-49
2021/05/05 00:07:52;;;;;;;3.80;1.83;;;10.40;99.90;;;;;;5052118;28;20431;-50
2021/05/05 00:10:19;;;;;;;2.40;1.40;;;10.50;99.90;;;;;;5052354;28;20438;-49
2021/05/05 00:12:46;;;;;;;8.63;2.10;;;10.50;99.90;;;;;;5051828;28;20435;-50
2021/05/05 00:15:16;;;;;;;4.13;2.30;;;10.60;99.90;;;;;;5052892;28;20543;-51
2021/05/05 00:17:42;;;;;;;5.33;1.77;;;10.50;99.90;;;;;;5052207;28;20431;-50
2021/05/05 00:20:10;;;;;;;4.17;1.87;;;10.70;99.90;;;;;;5051972;28;20526;-50
2021/05/05 00:22:37;;;;;;;3.83;1.60;;;10.60;99.90;;;;;;5051486;28;20427;-49
2021/05/05 00:25:04;;;;;;;4.80;1.50;;;11.10;99.90;;;;;;5051960;28;20864;-50
2021/05/05 00:27:31;;;;;;;2.20;1.37;;;10.60;99.90;;;;;;5051637;28;20516;-49
2021/05/05 00:29:58;;;;;;;3.73;1.50;;;10.70;99.90;;;;;;5051750;28;20804;-50
2021/05/05 00:32:24;;;;;;;3.63;1.83;;;10.60;99.90;;;;;;5051548;28;20781;-50
2021/05/05 00:34:50;;;;;;;3.37;2.00;;;10.20;99.90;;;;;;5051704;28;20562;-50
2021/05/05 00:37:17;;;;;;;3.83;1.60;;;10.70;99.90;;;;;;5051520;28;20442;-50
2021/05/05 00:39:43;;;;;;;3.07;1.77;;;10.60;99.90;;;;;;5051615;28;20443;-50
2021/05/05 00:42:09;;;;;;;2.80;1.70;;;10.20;99.90;;;;;;5051747;28;20499;-50
2021/05/05 00:44:36;;;;;;;3.27;1.70;;;10.60;99.90;;;;;;5051394;28;20435;-51
2021/05/05 00:47:03;;;;;;;2.10;1.30;;;10.20;99.90;;;;;;5051140;28;20624;-49
2021/05/05 00:49:29;;;;;;;3.50;1.80;;;10.20;99.90;;;;;;5051145;28;20471;-50
2021/05/05 00:51:56;;;;;;;3.57;1.93;;;9.70;99.90;;;;;;5051003;28;20431;-50
2021/05/05 00:54:23;;;;;;;3.10;1.73;;;10.50;99.90;;;;;;5051478;28;20445;-49
2021/05/05 00:56:50;;;;;;;4.93;2.10;;;10.00;99.90;;;;;;5033435;28;20503;-50
2021/05/05 00:59:16;;;;;;;2.97;1.27;;;10.60;99.90;;;;;;5051308;28;20438;-49
2021/05/05 01:01:43;;;;;;;6.10;2.13;;;10.40;99.90;;;;;;5051739;28;20435;-49
2021/05/05 01:04:10;;;;;;;5.40;1.60;;;10.20;99.90;;;;;;5051838;28;20869;-48
2021/05/05 01:06:37;;;;;;;4.47;1.70;;;10.60;99.90;;;;;;5052198;28;20801;-49
2021/05/05 01:09:05;;;;;;;8.63;1.60;;;9.90;99.90;;;;;;5051967;28;20482;-49
2021/05/05 01:11:32;;;;;;;5.10;1.63;;;10.00;99.90;;;;;;5034100;28;20941;-49
2021/05/05 01:13:58;;;;;;;6.37;1.80;;;10.10;99.90;;;;;;5033479;28;20816;-49
2021/05/05 01:16:26;;;;;;;5.57;1.57;;;9.70;99.90;;;;;;5051769;28;20458;-49
2021/05/05 01:18:53;;;;;;;3.03;1.53;;;10.30;99.90;;;;;;5051609;28;20799;-49
2021/05/05 01:21:20;;;;;;;4.70;1.50;;;10.20;99.90;;;;;;5051803;28;20515;-49
2021/05/05 01:23:46;;;;;;;4.60;2.03;;;9.80;99.90;;;;;;5051426;28;20500;-49
2021/05/05 01:26:13;;;;;;;4.80;1.80;;;10.40;99.90;;;;;;5051274;28;20469;-50
2021/05/05 01:28:42;;;;;;;8.53;1.60;;;10.70;99.90;;;;;;5051390;28;20470;-50
2021/05/05 01:31:14;;;;;;;3.33;1.63;;;10.20;99.90;;;;;;5033394;28;20437;-50
2021/05/05 01:33:42;;;;;;;2.90;1.50;;;10.10;99.90;;;;;;5052212;28;20431;-50
2021/05/05 01:36:12;;;;;;;8.20;2.00;;;10.20;99.90;;;;;;5035936;28;20526;-50
2021/05/05 01:38:39;;;;;;;3.93;1.97;;;10.00;99.90;;;;;;5053581;28;20790;-49
2021/05/05 01:41:06;;;;;;;5.43;1.53;;;10.10;99.90;;;;;;5035258;28;20522;-50
2021/05/05 01:43:32;;;;;;;6.83;2.13;;;10.00;99.90;;;;;;5051756;28;20439;-50
2021/05/05 01:45:59;;;;;;;6.30;1.80;;;10.00;99.90;;;;;;5033679;28;20478;-50
2021/05/05 01:48:26;;;;;;;3.80;1.70;;;9.90;99.90;;;;;;5033882;28;20708;-50
2021/05/05 01:50:53;;;;;;;4.13;1.50;;;9.50;99.90;;;;;;5032943;28;20442;-49
2021/05/05 01:53:19;;;;;;;3.37;1.60;;;9.90;99.90;;;;;;5033104;28;20463;-48
2021/05/05 01:55:47;;;;;;;4.17;1.73;;;9.60;99.90;;;;;;5050686;28;20460;-49
2021/05/05 01:58:15;;;;;;;3.43;1.80;;;9.40;99.90;;;;;;5032810;28;21039;-50
2021/05/05 02:00:41;;;;;;;3.57;1.97;;;9.30;99.90;;;;;;5051049;28;21225;-50
2021/05/05 02:03:10;;;;;;;4.63;1.80;;;9.40;99.90;;;;;;5032410;28;20450;-50
2021/05/05 02:05:53;;;;;;;3.40;2.10;;;9.40;99.90;;;;;;5032426;28;20889;-50
2021/05/05 02:08:25;;;;;;;7.80;2.00;;;9.80;99.90;;;;;;5050684;28;20484;-49
2021/05/05 02:10:53;;;;;;;3.40;1.90;;;10.00;99.90;;;;;;5032566;28;20445;-50
2021/05/05 02:13:20;;;;;;;4.20;2.00;;;9.40;99.90;;;;;;5050321;28;20500;-50
2021/05/05 02:15:47;;;;;;;4.07;1.73;;;9.80;99.90;;;;;;5032356;28;20455;-50
2021/05/05 02:18:15;;;;;;;3.17;1.40;;;9.90;99.90;;;;;;5050397;28;20442;-50
2021/05/05 02:20:43;;;;;;;4.50;2.23;;;9.70;99.90;;;;;;5032523;28;20511;-50
2021/05/05 02:23:10;;;;;;;8.63;1.80;;;9.80;99.90;;;;;;5032037;28;20458;-50
2021/05/05 02:25:38;;;;;;;5.77;2.20;;;10.00;99.90;;;;;;5050135;28;20466;-50
2021/05/05 02:28:10;;;;;;;3.67;1.77;;;9.80;99.90;;;;;;5050670;28;20489;-50
2021/05/05 02:31:08;;;;;;;6.87;2.33;;;10.30;99.90;;;;;;5032551;28;20446;-50
2021/05/05 02:33:35;;;;;;;5.70;2.10;;;10.00;99.90;;;;;;5032053;28;21003;-49
2021/05/05 02:36:03;;;;;;;3.93;1.50;;;9.90;99.90;;;;;;5032270;28;20474;-49
2021/05/05 02:38:29;;;;;;;4.10;1.77;;;9.80;99.90;;;;;;5032245;28;20443;-50
2021/05/05 02:40:58;;;;;;;5.47;2.43;;;9.50;99.90;;;;;;5032151;28;20443;-50
2021/05/05 02:43:25;;;;;;;2.20;1.77;;;10.20;99.90;;;;;;5049827;28;20431;-50
2021/05/05 02:45:52;;;;;;;3.50;2.10;;;10.00;99.90;;;;;;5032895;28;20882;-50
2021/05/05 02:48:19;;;;;;;7.30;2.20;;;9.90;99.90;;;;;;5034939;28;20789;-49
2021/05/05 02:50:45;;;;;;;6.57;1.87;;;9.50;99.90;;;;;;5035643;28;20442;-50
2021/05/05 02:53:12;;;;;;;3.93;2.03;;;9.70;99.90;;;;;;5035914;28;20446;-50
2021/05/05 02:55:38;;;;;;;4.03;2.00;;;9.80;99.90;;;;;;5054261;28;20489;-49
2021/05/05 02:58:04;;;;;;;4.80;2.17;;;9.80;99.90;;;;;;5054041;28;20431;-50
2021/05/05 03:00:31;;;;;;;4.50;2.27;;;9.50;99.90;;;;;;5054174;28;20579;-50
2021/05/05 03:02:57;;;;;;;7.07;2.80;;;9.70;99.90;;;;;;5053409;28;20763;-50
2021/05/05 03:05:24;;;;;;;5.90;1.77;;;9.50;99.90;;;;;;5035653;28;20470;-50
2021/05/05 03:07:50;;;;;;;4.30;2.20;;;9.60;99.90;;;;;;5053904;28;20782;-50
2021/05/05 03:10:16;;;;;;;3.80;1.97;;;9.40;99.90;;;;;;5053684;28;20477;-50
2021/05/05 03:12:43;;;;;;;5.30;1.83;;;9.80;99.90;;;;;;5035162;28;20799;-50
2021/05/05 03:15:10;;;;;;;6.30;2.40;;;9.90;99.90;;;;;;5054143;28;20444;-50
2021/05/05 03:17:38;;;;;;;5.53;2.23;;;9.40;99.90;;;;;;5053651;28;20434;-50
2021/05/05 03:20:06;;;;;;;4.67;2.03;;;9.60;99.90;;;;;;5053365;28;20941;-50
2021/05/05 03:22:32;;;;;;;4.70;2.60;;;9.10;99.90;;;;;;5053226;28;20836;-50
2021/05/05 03:24:59;;;;;;;8.97;3.37;;;9.20;99.90;;;;;;5053381;28;20784;-50
2021/05/05 03:27:25;;;;;;;8.30;2.13;;;9.10;99.90;;;;;;5053355;28;20430;-50
2021/05/05 03:29:51;;;;;;;4.23;2.60;;;9.30;99.90;;;;;;5053240;28;20529;-50
2021/05/05 03:32:17;;;;;;;5.50;2.83;;;9.60;99.90;;;;;;5052935;28;20434;-49
2021/05/05 03:34:45;;;;;;;3.57;2.33;;;9.40;99.90;;;;;;5052917;28;20477;-49
2021/05/05 03:37:11;;;;;;;5.60;3.10;;;9.30;99.90;;;;;;5034939;28;20477;-50
2021/05/05 03:39:37;;;;;;;9.60;2.77;;;9.50;99.90;;;;;;5053051;28;20550;-51
2021/05/05 03:42:04;;;;;;;6.77;2.50;;;9.30;99.90;;;;;;5034972;28;20969;-50
2021/05/05 03:44:30;;;;;;;5.40;2.03;;;9.20;99.90;;;;;;5052699;28;20576;-50
2021/05/05 03:46:56;;;;;;;4.43;2.57;;;8.80;99.90;;;;;;5052399;28;20469;-49
2021/05/05 03:49:22;;;;;;;5.87;2.57;;;9.60;99.90;;;;;;5052966;28;20474;-50
2021/05/05 03:51:49;;;;;;;7.37;3.00;;;9.40;99.90;;;;;;5053229;28;20499;-50
2021/05/05 03:54:17;;;;;;;5.83;2.37;;;9.50;99.90;;;;;;5052494;28;20556;-50
2021/05/05 03:56:43;;;;;;;5.53;3.17;;;9.50;99.90;;;;;;5051836;28;20989;-50
2021/05/05 03:59:10;;;;;;;8.17;2.70;;;9.40;99.90;;;;;;5052644;28;20903;-50
2021/05/05 04:01:36;;;;;;;4.83;2.50;;;9.70;99.90;;;;;;5052522;28;20454;-49
2021/05/05 04:04:03;;;;;;;4.50;2.43;;;9.60;99.90;;;;;;5052305;28;20466;-49
2021/05/05 04:06:29;;;;;;;5.83;2.40;;;9.70;99.90;;;;;;5052245;28;20935;-49
2021/05/05 04:08:57;;;;;;;5.33;2.83;;;9.50;99.90;;;;;;5052091;28;20448;-49
2021/05/05 04:11:23;;;;;;;10.93;2.80;;;9.80;99.90;;;;;;5052290;28;20426;-50
2021/05/05 04:13:49;;;;;;;5.20;2.20;;;9.50;99.90;;;;;;5051294;28;20445;-49
2021/05/05 04:16:15;;;;;;;6.67;3.57;;;9.80;99.90;;;;;;5052345;28;20450;-50
2021/05/05 04:18:42;;;;;;;7.83;2.50;;;9.70;99.90;;;;;;5052454;28;20789;-49
2021/05/05 04:21:09;;;;;;;4.00;2.43;;;9.60;99.90;;;;;;5052027;28;20442;-49
2021/05/05 04:23:36;;;;;;;4.17;2.10;;;9.70;99.90;;;;;;5051837;28;20435;-49
2021/05/05 04:26:03;;;;;;;4.23;2.40;;;9.80;99.90;;;;;;5051969;28;20462;-49
2021/05/05 04:28:30;;;;;;;4.60;1.77;;;10.00;99.90;;;;;;5051706;28;20997;-50
2021/05/05 04:30:58;;;;;;;3.30;2.27;;;10.00;99.90;;;;;;5051969;28;20433;-50
2021/05/05 04:33:25;;;;;;;5.50;3.20;;;9.70;99.90;;;;;;5051166;28;20426;-50
2021/05/05 04:35:51;;;;;;;4.47;2.97;;;9.90;99.90;;;;;;5051772;28;20532;-50
2021/05/05 04:38:17;;;;;;;7.00;2.67;;;9.70;99.90;;;;;;5051382;28;20450;-50
2021/05/05 04:40:44;;;;;;;9.10;2.60;;;9.70;99.90;;;;;;5051589;28;20431;-50
2021/05/05 04:43:11;;;;;;;8.10;2.90;;;10.50;99.90;;;;;;5051273;28;20435;-50
2021/05/05 04:45:37;;;;;;;6.93;3.40;;;9.70;99.90;;;;;;5074619;22;20497;-46
2021/05/05 04:48:04;;;;;;;4.33;2.73;;;9.50;99.90;;;;;;5053007;28;20866;-45
2021/05/05 04:50:31;;;;;;;4.53;2.87;;;10.20;99.90;;;;;;5052965;28;20956;-45
2021/05/05 04:52:57;;;;;;;6.37;2.50;;;10.10;99.90;;;;;;5052879;28;20750;-45
2021/05/05 04:55:23;;;;;;;5.47;2.30;;;10.30;99.90;;;;;;5052829;28;20813;-47
2021/05/05 04:57:49;;;;;;;5.97;2.97;;;10.50;99.90;;;;;;5052775;28;20435;-47
2021/05/05 05:00:18;;;;;;;7.73;2.50;;;10.40;99.90;;;;;;5035074;28;20443;-46
2021/05/05 05:02:44;;;;;;;5.70;2.60;;;10.30;99.90;;;;;;5052563;28;20942;-46
2021/05/05 05:05:11;;;;;;;6.07;2.83;;;10.60;99.90;;;;;;5053150;28;20906;-46
2021/05/05 05:07:37;;;;;;;7.20;2.20;;;10.60;99.90;;;;;;5052931;28;20969;-45
2021/05/05 05:10:05;;;;;;;4.73;2.30;;;10.50;99.90;;;;;;5052343;28;20478;-46
2021/05/05 05:12:31;;;;;;;3.60;1.93;;;10.40;99.90;;;;;;5034834;28;20484;-45
2021/05/05 05:14:58;;;;;;;3.77;1.93;;;10.70;99.90;;;;;;5052706;28;20435;-45
2021/05/05 05:17:25;;;;;;;2.47;2.27;;;10.70;99.50;;;;;;5052783;28;20524;-46
2021/05/05 05:19:52;;;;;;;4.07;2.10;;;10.60;99.00;;;;;;5053027;28;20422;-47
2021/05/05 05:22:18;;;;;;;3.90;2.40;;;10.90;99.10;;;;;;5052511;28;20430;-47
2021/05/05 05:24:45;;;;;;;4.90;3.17;;;10.80;98.80;;;;;;5052614;28;20439;-46
2021/05/05 05:27:11;;;;;;;4.00;2.27;;;10.50;98.70;;;;;;5052630;28;20910;-47
2021/05/05 05:29:37;;;;;;;6.13;2.63;;;10.70;98.70;;;;;;5051572;28;20482;-45
2021/05/05 05:32:03;;;;;;;8.40;2.90;;;11.30;98.60;;;;;;5034397;28;20443;-47
2021/05/05 05:34:30;;;;;;;6.43;2.40;;;10.80;97.90;;;;;;5052098;28;20434;-46
2021/05/05 05:36:57;;;;;;;9.07;2.50;;;10.70;97.60;;;;;;5052577;28;20462;-45
2021/05/05 05:39:23;;;;;;;3.00;1.97;;;10.60;97.60;;;;;;5052661;28;20745;-45
2021/05/05 05:41:49;;;;;;;6.90;2.83;;;10.80;97.60;;;;;;5034088;28;20449;-46
2021/05/05 05:44:15;;;;;;;4.93;3.03;;;10.80;97.50;;;;;;5051882;28;20510;-45
2021/05/05 05:46:42;;;;;;;7.33;2.20;;;10.80;97.10;;;;;;5036175;28;20470;-46
2021/05/05 05:49:10;;;;;;;4.53;2.03;;;11.10;97.00;;;;;;5053873;28;20463;-45
2021/05/05 05:51:38;;;;;;;10.03;3.87;;;10.80;96.60;;;;;;5053036;28;20489;-46
2021/05/05 05:54:05;;;;;;;8.50;2.47;;;11.20;96.60;;;;;;5052144;28;20442;-45
2021/05/05 05:56:32;;;;;;;8.73;2.30;;;11.00;96.40;;;;;;5052585;28;20461;-45
2021/05/05 05:58:58;;;;;;;4.93;1.93;;;11.00;96.60;;;;;;5034841;28;20485;-45
2021/05/05 06:01:24;;;;;;;6.67;1.87;;;10.80;96.70;;;;;;5052468;28;20438;-45
2021/05/05 06:03:50;;;;;;;4.60;1.83;;;10.90;97.00;;;;;;5053253;28;20446;-44
2021/05/05 06:06:17;;;;;;;6.50;2.83;;;10.80;97.20;;;;;;5034457;28;20463;-45
2021/05/05 06:08:44;;;;;;;4.00;2.57;;;10.80;97.60;;;;;;5052263;28;20475;-45
2021/05/05 06:11:10;;;;;;;6.00;3.47;;;10.90;97.60;;;;;;5052698;28;20457;-46
2021/05/05 06:13:36;;;;;;;7.10;2.80;;;11.10;97.70;;;;;;5051240;28;20445;-46
2021/05/05 06:16:03;;;;;;;5.80;4.93;;;11.00;97.70;;;;;;5052137;28;20502;-48
2021/05/05 06:18:29;;;;;;;6.57;3.20;;;11.00;97.00;;;;;;5052278;28;20427;-46
2021/05/05 06:20:55;;;;;;;8.00;2.30;;;11.50;97.30;;;;;;5051631;28;20438;-46
2021/05/05 06:23:22;;;;;;;5.00;2.77;;;11.30;96.60;;;;;;5051439;28;20439;-46
2021/05/05 06:25:49;;;;;;;9.87;2.33;;;11.40;96.30;;;;;;5052211;28;20459;-46
2021/05/05 06:28:15;;;;;;;4.10;2.40;;;11.20;96.40;;;;;;5052223;28;20438;-46
2021/05/05 06:30:42;;;;;;;5.93;2.30;;;11.60;96.50;;;;;;5052290;28;20852;-46
2021/05/05 06:33:08;;;;;;;13.50;3.33;;;11.50;96.70;;;;;;5033573;28;20501;-45
2021/05/05 06:35:34;;;;;;;6.93;3.83;;;11.20;96.10;;;;;;5052390;28;20455;-46
2021/05/05 06:38:01;;;;;;;3.70;2.27;;;11.60;95.90;;;;;;5052251;28;20442;-46
2021/05/05 06:40:27;;;;;;;4.77;2.50;;;11.90;95.30;;;;;;5052251;28;20431;-46
2021/05/05 06:42:54;;;;;;;8.40;3.63;;;11.70;94.80;;;;;;5051936;28;20448;-46
2021/05/05 06:45:20;;;;;;;6.80;2.33;;;12.00;94.20;;;;;;5051850;28;20431;-46
2021/05/05 06:47:47;;;;;;;5.40;3.17;;;11.80;93.80;;;;;;5052401;28;20787;-46
2021/05/05 06:50:14;;;;;;;3.77;2.43;;;11.90;93.30;;;;;;5050917;28;20470;-48
2021/05/05 06:52:40;;;;;;;6.40;2.20;;;11.90;93.30;;;;;;5051024;28;20488;-47
2021/05/05 06:55:08;;;;;;;8.83;4.10;;;12.50;93.40;;;;;;5051438;28;20439;-46
2021/05/05 06:57:35;;;;;;;4.63;2.83;;;12.10;92.70;;;;;;5051557;28;20778;-45
2021/05/05 07:00:04;;;;;;;5.23;2.57;;;12.70;92.30;;;;;;5051648;28;20524;-45
2021/05/05 07:02:30;;;;;;;4.10;2.23;;;12.40;92.20;;;;;;5051448;28;20509;-45
2021/05/05 07:04:57;;;;;;;4.13;2.20;;;12.40;91.70;;;;;;5033716;28;20520;-46
2021/05/05 07:07:25;;;;;;;8.30;3.27;;;12.50;91.30;;;;;;5050829;28;20676;-46
2021/05/05 07:09:52;;;;;;;10.97;3.73;;;12.30;91.20;;;;;;5050670;28;20846;-46
2021/05/05 07:12:19;;;;;;;6.17;2.80;;;12.40;91.20;;;;;;5050640;28;20527;-47
2021/05/05 07:14:45;;;;;;;5.90;2.03;;;12.00;91.20;;;;;;5051358;28;20414;-46
2021/05/05 07:17:13;;;;;;;3.80;2.40;;;12.20;91.40;;;;;;5051227;28;20460;-47
2021/05/05 07:19:39;;;;;;;4.73;3.37;;;12.30;91.50;;;;;;5051490;28;20427;-46
2021/05/05 07:22:06;;;;;;;4.77;3.03;;;11.90;91.40;;;;;;5051375;28;20435;-46
2021/05/05 07:24:33;;;;;;;6.40;2.90;;;11.90;91.60;;;;;;5051226;28;20447;-46
2021/05/05 07:26:59;;;;;;;6.13;2.50;;;12.00;91.80;;;;;;5032510;28;20512;-46
2021/05/05 07:29:25;;;;;;;3.33;2.70;;;12.30;92.30;;;;;;5050808;28;20477;-46
2021/05/05 07:31:52;;;;;;;4.20;2.13;;;12.00;92.10;;;;;;5051860;28;20435;-47
2021/05/05 07:34:20;;;;;;;3.90;2.50;;;12.00;92.20;;;;;;5053993;28;20428;-47
2021/05/05 07:36:48;;;;;;;3.80;2.83;;;12.70;92.40;;;;;;5036272;28;20541;-46
2021/05/05 07:39:26;;;;;;;10.60;2.83;;;12.20;91.70;;;;;;5054258;28;20432;-46
2021/05/05 07:47:37;;;;;;;7.80;3.17;;;11.80;89.80;;;;;;5011773;28;20479;-48
2021/05/05 07:50:09;;;;;;;6.20;2.90;;;12.70;90.00;;;;;;5043941;28;20531;-46
2021/05/05 07:52:35;;;;;;;6.03;2.80;;;12.50;89.80;;;;;;5053812;28;20428;-47
2021/05/05 07:55:02;;;;;;;6.37;2.80;;;12.70;89.70;;;;;;5053900;28;20447;-47
2021/05/05 07:57:29;;;;;;;4.87;2.10;;;12.80;89.10;;;;;;5053877;28;20460;-47
2021/05/05 07:59:55;;;;;;;3.13;2.40;;;12.80;89.80;;;;;;5053948;28;20424;-45
2021/05/05 08:02:21;;;;;;;4.93;2.07;;;13.00;88.00;;;;;;5053385;28;20854;-46
2021/05/05 08:04:49;;;;;;;8.10;2.70;;;13.40;88.30;;;;;;5053888;28;20936;-46
2021/05/05 08:07:18;;;;;;;4.33;2.07;;;13.60;86.90;;;;;;5053738;28;20460;-46
2021/05/05 08:09:50;;;;;;;3.87;2.43;;;13.30;86.30;;;;;;5053339;28;20494;-46
2021/05/05 08:12:17;;;;;;;3.93;2.50;;;13.70;86.10;;;;;;5053096;28;20432;-46
2021/05/05 08:14:44;;;;;;;3.90;2.70;;;13.80;85.80;;;;;;5054233;28;20879;-47
2021/05/05 08:17:11;;;;;;;4.10;2.10;;;13.40;84.10;;;;;;5053322;28;20507;-47
2021/05/05 08:19:38;;;;;;;3.30;2.17;;;13.70;83.80;;;;;;5053187;28;20433;-47
2021/05/05 08:22:06;;;;;;;4.17;2.20;;;13.60;83.20;;;;;;5053506;28;20456;-47
2021/05/05 08:24:34;;;;;;;5.67;2.60;;;13.30;83.10;;;;;;5052993;28;20427;-46
2021/05/05 08:27:00;;;;;;;6.13;2.40;;;13.10;83.20;;;;;;5053482;28;20447;-46
2021/05/05 08:29:28;;;;;;;3.80;2.10;;;13.30;82.60;;;;;;5053537;28;20929;-46
2021/05/05 08:31:56;;;;;;;4.40;2.17;;;13.40;82.30;;;;;;5053278;28;20440;-45
2021/05/05 08:34:22;;;;;;;4.70;2.60;;;13.50;82.40;;;;;;5052777;28;20433;-46
2021/05/05 08:36:49;;;;;;;7.80;2.40;;;13.00;82.30;;;;;;5035194;28;20471;-46
2021/05/05 08:39:15;;;;;;;4.10;2.00;;;12.80;82.40;;;;;;5053151;28;20820;-47
2021/05/05 08:41:43;;;;;;;2.40;2.00;;;13.10;82.60;;;;;;5053100;28;20461;-47
2021/05/05 08:44:10;;;;;;;4.27;2.37;;;13.00;82.50;;;;;;5052134;28;20876;-46
2021/05/05 08:46:38;;;;;;;4.37;2.23;;;12.90;82.80;;;;;;5052305;28;20542;-46
2021/05/05 08:49:04;;;;;;;5.80;2.43;;;13.00;82.60;;;;;;5052547;28;20503;-47
2021/05/05 08:51:31;;;;;;;6.03;2.23;;;13.30;82.00;;;;;;5052561;28;20825;-46
2021/05/05 08:53:57;;;;;;;2.40;2.00;;;12.80;81.50;;;;;;5052184;28;20457;-46
2021/05/05 08:56:24;;;;;;;3.43;2.10;;;12.90;81.90;;;;;;5052678;28;20481;-47
2021/05/05 08:58:51;;;;;;;2.10;1.90;;;13.10;82.00;;;;;;5052618;28;20428;-46
2021/05/05 09:01:18;;;;;;;2.93;2.30;;;13.80;83.60;;;;;;5052663;28;20469;-46
2021/05/05 09:03:44;;;;;;;5.23;2.57;;;13.20;86.40;;;;;;5052146;28;20640;-46
2021/05/05 09:06:11;;;;;;;4.17;2.87;;;13.80;87.40;;;;;;5052673;28;20864;-46
2021/05/05 09:08:47;;;;;;;4.60;2.70;;;13.60;86.80;;;;;;5052209;28;20430;-46
2021/05/05 09:11:15;;;;;;;6.37;2.67;;;14.10;86.80;;;;;;5052569;28;20501;-45
2021/05/05 09:13:53;;;;;;;4.90;2.43;;;13.70;84.30;;;;;;5051945;28;20530;-46
2021/05/05 09:16:22;;;;;;;6.73;1.90;;;14.50;85.10;;;;;;5052872;28;20563;-45
2021/05/05 09:19:00;;;;;;;3.40;2.67;;;14.00;83.80;;;;;;5052883;28;20445;-46
2021/05/05 09:21:29;;;;;;;6.17;2.30;;;14.50;80.40;;;;;;5052803;28;20433;-46
2021/05/05 09:24:29;;;;;;;3.87;1.70;;;14.30;78.20;;;;;;5052064;28;20434;-46
2021/05/05 09:26:56;;;;;;;3.70;2.00;;;14.20;77.50;;;;;;5052780;28;20954;-46
2021/05/05 09:29:39;;;;;;;9.23;2.70;;;13.80;74.80;;;;;;5052167;28;20476;-45
2021/05/05 09:32:06;;;;;;;4.77;1.83;;;14.80;74.80;;;;;;5052153;28;20434;-46
2021/05/05 09:34:32;;;;;;;2.53;1.53;;;14.50;74.20;;;;;;5052311;28;20440;-45
2021/05/05 09:37:00;;;;;;;3.37;1.70;;;14.50;71.60;;;;;;5032580;28;20495;-46
2021/05/05 09:39:29;;;;;;;3.90;1.60;;;15.10;70.90;;;;;;5048005;28;20444;-46
2021/05/05 09:41:56;;;;;;;1.87;1.60;;;14.40;66.70;;;;;;5052056;28;20441;-47
2021/05/05 09:44:23;;;;;;;5.40;2.07;;;14.50;67.70;;;;;;5052016;28;20505;-47
2021/05/05 09:46:53;;;;;;;2.83;1.60;;;14.50;68.70;;;;;;5051596;28;20680;-47
2021/05/05 09:49:21;;;;;;;2.80;2.00;;;14.30;68.50;;;;;;5051665;28;20458;-47
2021/05/05 09:51:49;;;;;;;3.03;1.50;;;14.40;67.30;;;;;;5051881;28;20439;-46
2021/05/05 09:54:23;;;;;;;2.30;1.77;;;14.30;67.50;;;;;;5032339;28;20482;-47
2021/05/05 09:56:50;;;;;;;3.80;1.67;;;14.80;68.30;;;;;;5051492;28;20499;-46
2021/05/05 09:59:17;;;;;;;4.13;1.50;;;14.70;68.10;;;;;;5051288;28;20446;-46
2021/05/05 10:01:59;;;;;;;2.60;1.50;;;14.40;67.90;;;;;;5051204;28;20458;-46
2021/05/05 10:04:26;;;;;;;6.87;1.70;;;14.20;69.40;;;;;;5033421;28;20545;-46
2021/05/05 10:06:57;;;;;;;2.67;1.53;;;14.10;74.30;;;;;;5033336;28;20470;-46
2021/05/05 10:09:24;;;;;;;1.60;1.50;;;14.20;75.70;;;;;;5051426;28;20967;-46
2021/05/05 10:11:51;;;;;;;2.67;1.80;;;14.00;75.90;;;;;;5051496;28;21048;-46
2021/05/05 10:14:20;;;;;;;4.63;2.40;;;14.10;78.70;;;;;;5051105;28;20429;-45
2021/05/05 10:16:49;;;;;;;2.53;1.63;;;13.80;80.10;;;;;;5052039;28;20446;-46
2021/05/05 10:19:19;;;;;;;5.57;1.80;;;14.00;80.20;;;;;;5051886;28;20757;-46
2021/05/05 10:21:54;;;;;;;2.60;1.53;;;13.80;79.50;;;;;;5050836;28;20496;-46
2021/05/05 10:24:22;;;;;;;4.90;2.40;;;13.80;79.10;;;;;;5050636;28;20508;-47
2021/05/05 10:26:49;;;;;;;6.20;2.10;;;14.00;79.40;;;;;;5050970;28;20497;-46
2021/05/05 10:29:16;;;;;;;2.80;1.70;;;13.60;79.50;;;;;;5033195;28;20483;-46
2021/05/05 10:32:12;;;;;;;6.67;2.20;;;13.70;80.20;;;;;;5052141;28;20918;-46
2021/05/05 10:34:41;;;;;;;4.00;2.00;;;13.90;79.40;;;;;;5051751;28;20457;-47
2021/05/05 10:37:08;;;;;;;3.10;1.97;;;14.00;78.90;;;;;;5051403;28;20546;-46
2021/05/05 10:39:39;;;;;;;2.67;2.33;;;14.30;79.50;;;;;;5051174;28;20483;-47
2021/05/05 10:42:16;;;;;;;4.30;2.87;;;14.60;80.00;;;;;;5051359;28;20423;-46
2021/05/05 10:44:45;;;;;;;6.03;2.97;;;14.60;81.10;;;;;;5051051;28;20448;-45
2021/05/05 10:47:19;;;;;;;5.80;2.60;;;14.20;90.00;;;;;;5051421;28;20486;-45
2021/05/05 10:50:13;;;;;;;5.43;2.73;;;14.70;90.00;;;;;;5052110;28;20479;-45
2021/05/05 10:53:02;;;;;;;8.20;2.73;;;14.90;91.10;;;;;;5033527;28;20450;-46
2021/05/05 10:55:44;;;;;;;7.63;3.73;;;14.70;91.60;;;;;;5013107;28;20455;-45
2021/05/05 10:58:13;;;;;;;6.83;2.90;;;14.30;89.90;;;;;;5030882;28;20982;-47
2021/05/05 11:01:02;;;;;;;6.43;2.23;;;14.70;87.90;;;;;;5045133;28;20435;-47
2021/05/05 11:04:03;;;;;;;6.20;2.60;;;14.60;85.90;;;;;;5050811;28;20443;-46
2021/05/05 11:06:54;;;;;;;4.70;2.63;;;14.60;77.90;;;;;;5050872;28;20852;-46
2021/05/05 11:09:41;;;;;;;4.13;1.50;;;14.90;78.80;;;;;;5054117;28;20501;-48
2021/05/05 11:12:07;;;;;;;3.67;1.27;;;15.00;77.00;;;;;;5036352;28;20496;-47
2021/05/05 11:14:46;;;;;;;3.03;1.80;;;15.10;71.10;;;;;;5054331;28;20426;-46
2021/05/05 11:17:27;;;;;;;5.77;1.33;;;15.40;71.00;;;;;;5054294;28;20445;-47
2021/05/05 11:19:54;;;;;;;6.63;1.47;;;15.70;70.70;;;;;;5054472;28;20438;-46
2021/05/05 11:22:44;;;;;;;2.53;1.40;;;15.20;70.30;;;;;;5054034;28;20433;-49
2021/05/05 11:25:25;;;;;;;3.17;1.53;;;15.30;70.30;;;;;;5036370;28;20520;-47
2021/05/05 11:27:54;;;;;;;2.53;1.30;;;15.30;69.40;;;;;;5054803;28;20473;-46
2021/05/05 11:30:50;;;;;;;4.23;1.60;;;15.40;69.80;;;;;;5054020;28;20556;-47
2021/05/05 11:33:17;;;;;;;4.80;1.50;;;15.40;69.60;;;;;;5054027;28;20587;-47
2021/05/05 11:35:44;;;;;;;5.17;1.50;;;15.20;67.00;;;;;;5036053;28;20990;-46
2021/05/05 11:38:23;;;;;;;5.70;1.47;;;15.10;63.30;;;;;;5054356;28;20460;-47
2021/05/05 11:41:07;;;;;;;3.00;1.40;;;15.60;62.70;;;;;;5054847;28;20489;-45
2021/05/05 11:43:33;;;;;;;2.10;1.10;;;15.40;60.00;;;;;;5053711;28;20796;-45
2021/05/05 11:46:03;;;;;;;2.90;1.27;;;15.20;59.20;;;;;;5053873;28;20539;-46
2021/05/05 11:48:35;;;;;;;5.50;1.60;;;15.50;59.50;;;;;;5053970;28;20489;-46
2021/05/05 11:51:02;;;;;;;4.70;1.33;;;15.60;59.50;;;;;;5053658;28;20729;-45
2021/05/05 11:53:35;;;;;;;6.17;1.03;;;15.80;58.40;;;;;;5054847;28;20441;-45
2021/05/05 11:56:02;;;;;;;4.00;1.10;;;15.90;58.50;;;;;;5055117;28;20462;-45
2021/05/05 11:58:30;;;;;;;4.53;1.20;;;15.90;57.80;;;;;;5037194;28;20449;-47
2021/05/05 12:00:56;;;;;;;2.37;1.10;;;16.20;56.40;;;;;;5053312;28;20871;-46
2021/05/05 12:03:25;;;;;;;3.20;0.90;;;15.90;54.90;;;;;;5053640;28;20526;-46
2021/05/05 12:05:55;;;;;;;3.47;1.07;;;16.20;56.10;;;;;;5053904;28;20455;-46
2021/05/05 12:08:24;;;;;;;3.50;1.40;;;16.00;55.70;;;;;;5053782;28;20971;-46
2021/05/05 12:10:54;;;;;;;3.97;1.17;;;15.90;55.40;;;;;;5053558;28;20580;-47
2021/05/05 12:13:22;;;;;;;4.03;0.97;;;16.00;55.70;;;;;;5053440;28;20456;-47
2021/05/05 12:15:58;;;;;;;3.03;1.20;;;16.00;55.50;;;;;;5053791;28;20499;-47
2021/05/05 12:18:29;;;;;;;2.93;1.20;;;16.30;55.80;;;;;;5052990;28;20437;-46
2021/05/05 12:21:03;;;;;;;5.10;1.70;;;16.00;56.10;;;;;;5053570;28;20468;-46
2021/05/05 12:23:40;;;;;;;6.13;1.50;;;15.90;56.30;;;;;;5053201;28;20449;-47
2021/05/05 12:26:15;;;;;;;3.40;1.30;;;15.90;56.00;;;;;;5053532;28;20463;-47
2021/05/05 12:28:43;;;;;;;5.77;1.53;;;16.00;55.10;;;;;;5035682;28;20542;-47
2021/05/05 12:31:12;;;;;;;2.93;1.27;;;15.70;54.50;;;;;;5053487;28;20529;-45
2021/05/05 12:33:41;;;;;;;3.20;1.30;;;15.40;53.00;;;;;;5052828;28;20432;-47
2021/05/05 12:36:10;;;;;;;5.27;1.50;;;15.90;53.20;;;;;;5053055;28;20505;-46
2021/05/05 12:38:39;;;;;;;7.77;2.00;;;15.60;53.30;;;;;;5053416;28;20433;-46
2021/05/05 12:41:08;;;;;;;7.60;1.60;;;15.80;53.90;;;;;;5053567;28;20460;-47
2021/05/05 12:43:36;;;;;;;4.20;1.30;;;16.10;54.80;;;;;;5052735;28;20441;-46
2021/05/05 12:46:04;;;;;;;9.23;2.20;;;15.80;54.20;;;;;;5052381;28;20528;-47
2021/05/05 12:48:36;;;;;;;6.17;2.00;;;16.00;54.50;;;;;;5052950;28;20870;-47
2021/05/05 12:51:08;;;;;;;5.27;1.63;;;15.80;53.30;;;;;;5053289;28;20561;-47
2021/05/05 12:53:56;;;;;;;6.37;1.83;;;15.70;53.20;;;;;;5052541;28;20427;-46
2021/05/05 12:56:38;;;;;;;3.33;1.70;;;16.10;54.00;;;;;;5052472;28;20494;-48
2021/05/05 12:59:06;;;;;;;7.60;2.13;;;16.00;54.00;;;;;;5052779;28;20523;-46
2021/05/05 13:01:33;;;;;;;3.87;1.50;;;15.80;54.10;;;;;;5052362;28;20431;-47